createdAt,value
2022-08-19T16:05:56.941Z,94672.34
2022-08-19T16:07:00.874Z,94670.50
2022-08-19T16:08:02.681Z,94671.81
2022-08-19T16:09:05.579Z,94679.53
2022-08-19T16:10:26.100Z,94676.78
2022-08-19T16:11:32.765Z,94670.00
2022-08-19T16:12:34.576Z,94672.94
2022-08-19T16:13:37.529Z,94679.41
2022-08-19T16:14:39.806Z,94678.63
2022-08-19T16:15:44.571Z,94683.19
2022-08-19T16:16:47.715Z,94678.84
2022-08-19T16:17:56.791Z,94674.31
2022-08-19T16:19:00.684Z,94671.84
2022-08-19T16:20:03.516Z,94672.72
2022-08-19T16:21:08.102Z,94670.81
2022-08-19T16:22:11.026Z,94678.34
2022-08-19T16:23:12.788Z,94676.16
2022-08-19T16:24:16.401Z,94669.72
2022-08-19T16:25:18.232Z,94676.16
2022-08-19T16:26:21.393Z,94673.47
2022-08-19T16:27:23.142Z,94671.84
2022-08-19T16:28:25.927Z,94674.78
2022-08-19T16:29:34.892Z,94669.41
2022-08-19T16:30:42.968Z,94665.91
2022-08-19T16:31:50.674Z,94676.44
2022-08-19T16:32:53.404Z,94675.63
2022-08-19T16:33:55.786Z,94672.09
2022-08-19T16:34:59.814Z,94674.00
2022-08-19T16:36:07.762Z,94673.75
2022-08-19T16:37:12.959Z,94673.75
2022-08-19T16:38:14.782Z,94671.28
2022-08-19T16:39:18.073Z,94678.31
2022-08-19T16:40:20.953Z,94666.72
2022-08-19T16:41:23.328Z,94677.50
2022-08-19T16:42:26.096Z,94677.50
2022-08-19T16:43:28.802Z,94674.00
2022-08-19T16:44:31.790Z,94676.69
2022-08-19T16:45:34.564Z,94678.31
2022-08-19T16:46:37.314Z,94681.03
2022-08-19T16:47:40.328Z,94677.50
2022-08-19T16:48:43.580Z,94679.38
2022-08-19T16:49:54.329Z,94678.31
2022-08-19T16:50:58.310Z,94676.69
2022-08-19T16:52:02.706Z,94678.31
2022-08-19T16:53:08.246Z,94681.81
2022-08-19T16:54:11.310Z,94674.53
2022-08-19T16:55:13.402Z,94679.94
2022-08-19T16:56:16.335Z,94682.63
2022-08-19T16:57:19.411Z,94683.72
2022-08-19T16:58:28.391Z,94676.69
2022-08-19T16:59:30.291Z,94681.25
2022-08-19T17:00:33.423Z,94682.06
2022-08-19T17:01:35.299Z,94675.88
2022-08-19T17:02:40.020Z,94686.66
2022-08-19T17:03:42.056Z,94680.47
2022-08-19T17:04:44.836Z,94686.66
2022-08-19T17:06:03.650Z,94692.84
2022-08-19T17:07:06.035Z,94689.09
2022-08-19T17:08:10.204Z,94687.47
2022-08-19T17:09:12.072Z,94686.41
2022-08-19T17:10:16.320Z,94690.16
2022-08-19T17:11:19.343Z,94695.53
2022-08-19T17:12:22.223Z,94692.03
2022-08-19T17:13:32.498Z,94689.34
2022-08-19T17:14:35.289Z,94697.72
2022-08-19T17:15:37.140Z,94700.41
2022-08-19T17:16:40.394Z,94695.00
2022-08-19T17:17:42.171Z,94697.72
2022-08-19T17:18:44.978Z,94696.88
2022-08-19T17:19:47.726Z,94704.16
2022-08-19T17:20:51.810Z,94700.41
2022-08-19T17:21:58.115Z,94699.84
2022-08-19T17:23:00.451Z,94709.53
2022-08-19T17:24:06.273Z,94704.94
2022-08-19T17:25:08.316Z,94705.78
2022-08-19T17:26:16.946Z,94712.00
2022-08-19T17:27:21.247Z,94699.31
2022-08-19T17:28:25.004Z,94703.63
2022-08-19T17:29:26.791Z,94710.09
2022-08-19T17:30:29.637Z,94705.53
2022-08-19T17:31:33.002Z,94711.72
2022-08-19T17:32:35.143Z,94713.59
2022-08-19T17:33:41.572Z,94712.78
2022-08-19T17:34:44.592Z,94716.31
2022-08-19T17:35:46.890Z,94718.19
2022-08-19T17:36:49.672Z,94716.31
2022-08-19T17:37:51.533Z,94727.34
2022-08-19T17:38:55.420Z,94730.03
2022-08-19T17:39:59.698Z,94723.00
2022-08-19T17:41:05.196Z,94725.72
2022-08-19T17:42:08.392Z,94725.97
2022-08-19T17:43:10.557Z,94726.22
2022-08-19T17:44:13.432Z,94727.31
2022-08-19T17:45:15.219Z,94727.31
2022-08-19T17:46:19.455Z,94732.13
2022-08-19T17:47:22.213Z,94731.31
2022-08-19T17:48:24.504Z,94730.50
2022-08-19T17:49:27.271Z,94736.94
2022-08-19T17:50:29.686Z,94733.56
2022-08-19T17:51:43.272Z,94731.91
2022-08-19T17:52:45.018Z,94742.41
2022-08-19T17:53:47.819Z,94745.34
2022-08-19T17:54:50.680Z,94744.78
2022-08-19T17:55:53.852Z,94745.03
2022-08-19T17:56:56.677Z,94741.81
2022-08-19T17:57:59.467Z,94749.88
2022-08-19T17:59:02.250Z,94748.88
2022-08-19T18:00:08.017Z,94737.47
2022-08-19T18:01:12.002Z,94745.66
2022-08-19T18:02:15.137Z,94748.72
2022-08-19T18:03:17.881Z,94748.06
2022-08-19T18:04:20.127Z,94759.84
2022-08-19T18:05:25.700Z,94760.63
2022-08-19T18:06:27.911Z,94753.84
2022-08-19T18:07:32.467Z,94760.06
2022-08-19T18:08:36.602Z,94763.25
2022-08-19T18:09:42.763Z,94760.00
2022-08-19T18:10:51.008Z,94761.31
2022-08-19T18:11:57.119Z,94756.69
2022-08-19T18:12:59.325Z,94750.97
2022-08-19T18:14:02.263Z,94756.13
2022-08-19T18:15:04.636Z,94758.25
2022-08-19T18:16:11.243Z,94751.47
2022-08-19T18:17:15.268Z,94765.75
2022-08-19T18:18:18.704Z,94767.06
2022-08-19T18:19:21.273Z,94756.84
2022-08-19T18:20:24.266Z,94761.94
2022-08-19T18:21:31.614Z,94757.38
2022-08-19T18:22:37.015Z,94765.19
2022-08-19T18:23:44.846Z,94761.88
2022-08-19T18:24:48.900Z,94767.75
2022-08-19T18:25:52.493Z,94765.38
2022-08-19T18:26:55.663Z,94768.63
2022-08-19T18:27:59.748Z,94768.13
2022-08-19T18:29:02.045Z,94770.50
2022-08-19T18:30:05.311Z,94771.25
2022-08-19T18:31:07.607Z,94771.19
2022-08-19T18:32:13.785Z,94775.50
2022-08-19T18:33:16.619Z,94773.06
2022-08-19T18:34:18.392Z,94773.88
2022-08-19T18:35:22.753Z,94775.22
2022-08-19T18:36:51.938Z,94771.94
2022-08-19T18:37:47.817Z,94771.94
2022-08-19T18:39:08.090Z,94777.63
2022-08-19T18:40:29.808Z,94774.06
2022-08-19T18:41:50.022Z,94771.94
2022-08-19T18:43:11.852Z,94770.28
2022-08-19T18:44:34.283Z,94768.19
2022-08-19T18:45:54.614Z,94770.28
2022-08-19T18:47:15.030Z,94768.44
2022-08-19T18:48:35.092Z,94767.06
2022-08-19T18:49:38.572Z,94771.88
2022-08-19T18:50:42.431Z,94769.75
2022-08-19T18:51:45.505Z,94774.06
2022-08-19T18:52:47.637Z,94774.88
2022-08-19T18:53:50.718Z,94771.38
2022-08-19T18:54:53.737Z,94777.81
2022-08-19T18:55:55.793Z,94779.94
2022-08-19T18:56:58.867Z,94776.75
2022-08-19T18:58:03.372Z,94772.06
2022-08-19T18:59:06.193Z,94775.84
2022-08-19T19:00:09.164Z,94776.19
2022-08-19T19:01:13.301Z,94774.06
2022-08-19T19:02:18.319Z,94771.63
2022-08-19T19:03:20.092Z,94774.31
2022-08-19T19:04:24.299Z,94778.38
2022-08-19T19:05:26.084Z,94777.00
2022-08-19T19:06:30.598Z,94782.41
2022-08-19T19:07:32.364Z,94777.44
2022-08-19T19:08:35.438Z,94782.84
2022-08-19T19:09:37.247Z,94786.94
2022-08-19T19:10:42.291Z,94789.63
2022-08-19T19:11:46.330Z,94785.78
2022-08-19T19:12:49.538Z,94786.28
2022-08-19T19:13:53.813Z,94791.66
2022-08-19T19:14:55.563Z,94789.56
2022-08-19T19:15:59.932Z,94793.06
2022-08-19T19:17:04.115Z,94795.75
2022-08-19T19:18:05.867Z,94791.97
2022-08-19T19:19:13.062Z,94803.00
2022-08-19T19:20:16.240Z,94794.09
2022-08-19T19:21:18.412Z,94799.72
2022-08-19T19:22:22.698Z,94807.31
2022-08-19T19:23:24.820Z,94806.50
2022-08-19T19:24:29.443Z,94810.53
2022-08-19T19:25:49.580Z,94808.25
2022-08-19T19:26:54.390Z,94808.75
2022-08-19T19:27:56.269Z,94812.75
2022-08-19T19:29:00.534Z,94812.25
2022-08-19T19:30:02.347Z,94812.81
2022-08-19T19:31:05.126Z,94821.19
2022-08-19T19:32:09.265Z,94815.56
2022-08-19T19:33:11.270Z,94812.66
2022-08-19T19:34:28.826Z,94817.75
2022-08-19T19:35:33.494Z,94816.69
2022-08-19T19:36:35.291Z,94823.16
2022-08-19T19:37:38.069Z,94824.75
2022-08-19T19:38:39.873Z,94818.88
2022-08-19T19:39:46.608Z,94824.25
2022-08-19T19:40:48.917Z,94823.22
2022-08-19T19:41:51.681Z,94813.81
2022-08-19T19:42:54.531Z,94826.00
2022-08-19T19:44:31.017Z,94824.69
2022-08-19T19:45:24.907Z,94827.13
2022-08-19T19:46:26.763Z,94822.81
2022-08-19T19:47:30.438Z,94822.81
2022-08-19T19:48:32.259Z,94828.19
2022-08-19T19:49:35.117Z,94828.19
2022-08-19T19:50:54.073Z,94828.19
2022-08-19T19:51:59.169Z,94829.00
2022-08-19T19:53:00.918Z,94829.00
2022-08-19T19:54:03.682Z,94839.78
2022-08-19T19:55:05.898Z,94830.63
2022-08-19T19:56:09.910Z,94827.13
2022-08-19T19:57:11.701Z,94829.81
2022-08-19T19:58:14.465Z,94832.28
2022-08-19T19:59:17.268Z,94828.72
2022-08-19T20:00:20.101Z,94834.69
2022-08-19T20:01:26.421Z,94828.50
2022-08-19T20:02:28.250Z,94833.06
2022-08-19T20:03:31.362Z,94833.88
2022-08-19T20:04:33.117Z,94832.00
2022-08-19T20:05:35.887Z,94828.50
2022-08-19T20:06:37.655Z,94829.31
2022-08-19T20:07:58.276Z,94832.81
2022-08-19T20:09:10.617Z,94830.97
2022-08-19T20:10:13.173Z,94820.19
2022-08-19T20:11:26.807Z,94833.38
2022-08-19T20:12:28.563Z,94828.00
2022-08-19T20:13:31.500Z,94831.50
2022-08-19T20:14:35.665Z,94831.50
2022-08-19T20:15:42.348Z,94835.00
2022-08-19T20:16:48.109Z,94827.75
2022-08-19T20:17:49.957Z,94826.09
2022-08-19T20:18:52.914Z,94833.13
2022-08-19T20:19:58.094Z,94839.34
2022-08-19T20:21:00.877Z,94831.25
2022-08-19T20:22:04.423Z,94825.59
2022-08-19T20:23:06.660Z,94831.78
2022-08-19T20:24:10.380Z,94822.91
2022-08-19T20:25:12.404Z,94831.78
2022-08-19T20:26:21.402Z,94829.09
2022-08-19T20:27:39.784Z,94833.69
2022-08-19T20:28:45.724Z,94836.38
2022-08-19T20:30:05.461Z,94838.03
2022-08-19T20:31:07.280Z,94843.41
2022-08-19T20:32:11.637Z,94842.56
2022-08-19T20:33:14.663Z,94844.22
2022-08-19T20:34:17.965Z,94836.13
2022-08-19T20:35:22.413Z,94840.72
2022-08-19T20:36:25.427Z,94840.72
2022-08-19T20:37:27.545Z,94836.94
2022-08-19T20:38:30.325Z,94832.38
2022-08-19T20:39:32.178Z,94836.94
2022-08-19T20:40:35.937Z,94850.41
2022-08-19T20:41:38.103Z,94839.41
2022-08-19T20:42:41.639Z,94842.91
2022-08-19T20:43:43.987Z,94843.66
2022-08-19T20:44:46.981Z,94849.31
2022-08-19T20:45:48.728Z,94855.19
2022-08-19T20:46:54.563Z,94851.66
2022-08-19T20:47:59.050Z,94867.28
2022-08-19T20:49:01.999Z,94854.31
2022-08-19T20:50:07.959Z,94859.72
2022-08-19T20:51:14.051Z,94866.72
2022-08-19T20:52:16.863Z,94867.50
2022-08-19T20:53:20.025Z,94875.59
2022-08-19T20:54:23.687Z,94868.59
2022-08-19T20:55:26.615Z,94874.53
2022-08-19T20:56:29.729Z,94872.91
2022-08-19T20:57:34.795Z,94871.03
2022-08-19T20:58:38.249Z,94868.31
2022-08-19T20:59:40.014Z,94869.97
2022-08-19T21:00:43.948Z,94872.41
2022-08-19T21:01:45.774Z,94881.84
2022-08-19T21:02:48.548Z,94883.75
2022-08-19T21:03:52.304Z,94881.06
2022-08-19T21:04:55.083Z,94879.91
2022-08-19T21:06:01.946Z,94873.72
2022-08-19T21:07:04.866Z,94872.09
2022-08-19T21:08:09.127Z,94876.66
2022-08-19T21:09:12.074Z,94875.28
2022-08-19T21:10:13.886Z,94885.00
2022-08-19T21:11:16.750Z,94875.03
2022-08-19T21:12:22.539Z,94869.56
2022-08-19T21:13:25.645Z,94877.38
2022-08-19T21:14:27.419Z,94877.66
2022-08-19T21:15:30.601Z,94882.75
2022-08-19T21:16:33.974Z,94879.59
2022-08-19T21:17:35.776Z,94880.41
2022-08-19T21:18:38.568Z,94879.00
2022-08-19T21:19:41.713Z,94871.78
2022-08-19T21:20:45.265Z,94869.91
2022-08-19T21:21:47.040Z,94870.91
2022-08-19T21:22:49.858Z,94875.50
2022-08-19T21:23:51.610Z,94879.59
2022-08-19T21:24:54.411Z,94863.44
2022-08-19T21:25:56.930Z,94865.53
2022-08-19T21:26:59.706Z,94872.59
2022-08-19T21:28:01.516Z,94867.41
2022-08-19T21:29:04.280Z,94863.09
2022-08-19T21:30:06.599Z,94866.41
2022-08-19T21:31:10.485Z,94869.09
2022-08-19T21:32:14.645Z,94864.72
2022-08-19T21:33:17.741Z,94871.19
2022-08-19T21:34:19.487Z,94869.31
2022-08-19T21:35:24.410Z,94867.13
2022-08-19T21:36:26.158Z,94876.50
2022-08-19T21:37:29.296Z,94871.94
2022-08-19T21:38:31.316Z,94885.16
2022-08-19T21:39:34.120Z,94883.84
2022-08-19T21:40:35.885Z,94876.00
2022-08-19T21:41:43.039Z,94876.00
2022-08-19T21:42:45.440Z,94874.69
2022-08-19T21:43:48.147Z,94885.25
2022-08-19T21:44:49.942Z,94871.59
2022-08-19T21:45:52.772Z,94878.69
2022-08-19T21:46:54.530Z,94880.25
2022-08-19T21:47:57.341Z,94874.06
2022-08-19T21:49:00.166Z,94877.81
2022-08-19T21:50:01.956Z,94877.56
2022-08-19T21:51:06.215Z,94870.00
2022-08-19T21:52:08.413Z,94871.81
2022-08-19T21:53:11.923Z,94872.13
2022-08-19T21:54:20.157Z,94873.50
2022-08-19T21:55:21.890Z,94870.31
2022-08-19T21:56:24.662Z,94870.53
2022-08-19T21:57:26.540Z,94878.63
2022-08-19T21:58:30.718Z,94870.00
2022-08-19T21:59:32.674Z,94867.53
2022-08-19T22:00:36.280Z,94872.63
2022-08-19T22:01:38.140Z,94871.81
2022-08-19T22:02:40.912Z,94859.72
2022-08-19T22:03:43.489Z,94867.53
2022-08-19T22:04:46.503Z,94865.13
2022-08-19T22:05:48.266Z,94868.03
2022-08-19T22:06:52.462Z,94872.84
2022-08-19T22:07:55.077Z,94875.25
2022-08-19T22:09:00.829Z,94870.34
2022-08-19T22:10:03.605Z,94874.66
2022-08-19T22:11:06.395Z,94867.44
2022-08-19T22:12:09.363Z,94871.72
2022-08-19T22:13:12.123Z,94876.84
2022-08-19T22:14:13.878Z,94874.44
2022-08-19T22:15:16.752Z,94871.97
2022-08-19T22:16:20.553Z,94875.25
2022-08-19T22:17:23.707Z,94869.28
2022-08-19T22:18:26.468Z,94867.09
2022-08-19T22:19:29.306Z,94862.59
2022-08-19T22:20:33.384Z,94863.97
2022-08-19T22:21:40.197Z,94855.66
2022-08-19T22:22:57.065Z,94857.59
2022-08-19T22:23:58.853Z,94851.09
2022-08-19T22:25:03.668Z,94856.47
2022-08-19T22:26:06.993Z,94862.09
2022-08-19T22:27:10.436Z,94854.00
2022-08-19T22:28:13.711Z,94856.19
2022-08-19T22:29:17.778Z,94859.72
2022-08-19T22:30:25.525Z,94858.41
2022-08-19T22:31:29.174Z,94853.34
2022-08-19T22:32:31.344Z,94855.47
2022-08-19T22:33:34.812Z,94850.66
2022-08-19T22:34:36.650Z,94850.16
2022-08-19T22:35:40.368Z,94852.84
2022-08-19T22:36:42.230Z,94849.56
2022-08-19T22:37:45.514Z,94847.97
2022-08-19T22:38:48.690Z,94845.81
2022-08-19T22:39:51.567Z,94842.06
2022-08-19T22:40:53.815Z,94837.50
2022-08-19T22:41:56.625Z,94840.75
2022-08-19T22:43:00.238Z,94836.19
2022-08-19T22:44:03.921Z,94838.59
2022-08-19T22:45:06.531Z,94832.41
2022-08-19T22:46:17.390Z,94826.56
2022-08-19T22:47:19.591Z,94826.03
2022-08-19T22:48:24.776Z,94832.28
2022-08-19T22:49:26.650Z,94835.19
2022-08-19T22:50:29.523Z,94833.31
2022-08-19T22:51:49.710Z,94825.81
2022-08-19T22:52:55.501Z,94833.66
2022-08-19T22:53:58.896Z,94828.00
2022-08-19T22:55:02.714Z,94830.44
2022-08-19T22:56:05.521Z,94821.28
2022-08-19T22:57:08.292Z,94818.84
2022-08-19T22:58:11.053Z,94823.91
2022-08-19T22:59:12.809Z,94830.38
2022-08-19T23:00:16.169Z,94836.50
2022-08-19T23:01:30.350Z,94832.41
2022-08-19T23:02:38.433Z,94827.78
2022-08-19T23:03:40.578Z,94827.78
2022-08-19T23:04:43.340Z,94832.34
2022-08-19T23:05:45.077Z,94832.91
2022-08-19T23:06:52.939Z,94836.28
2022-08-19T23:07:57.420Z,94831.59
2022-08-19T23:09:01.922Z,94832.91
2022-08-19T23:10:07.179Z,94839.31
2022-08-19T23:11:10.786Z,94847.06
2022-08-19T23:12:13.912Z,94838.19
2022-08-19T23:13:17.330Z,94835.50
2022-08-19T23:14:19.087Z,94835.22
2022-08-19T23:15:24.594Z,94827.97
2022-08-19T23:16:26.762Z,94833.34
2022-08-19T23:17:29.578Z,94826.09
2022-08-19T23:18:31.406Z,94812.38
2022-08-19T23:19:34.610Z,94820.22
2022-08-19T23:20:38.700Z,94819.16
2022-08-19T23:21:42.294Z,94821.03
2022-08-19T23:22:46.212Z,94819.38
2022-08-19T23:23:48.009Z,94815.00
2022-08-19T23:24:55.952Z,94818.78
2022-08-19T23:25:58.037Z,94820.91
2022-08-19T23:27:18.227Z,94814.50
2022-08-19T23:28:39.059Z,94815.66
2022-08-19T23:29:59.225Z,94812.53
2022-08-19T23:31:02.003Z,94820.03
2022-08-19T23:32:07.059Z,94814.56
2022-08-19T23:33:14.951Z,94815.94
2022-08-19T23:34:17.297Z,94823.78
2022-08-19T23:35:20.641Z,94820.53
2022-08-19T23:36:24.324Z,94818.41
2022-08-19T23:37:26.153Z,94815.44
2022-08-19T23:38:29.810Z,94814.63
2022-08-19T23:39:31.676Z,94812.75
2022-08-19T23:40:36.575Z,94809.75
2022-08-19T23:41:38.739Z,94814.34
2022-08-19T23:42:41.866Z,94807.56
2022-08-19T23:43:44.624Z,94803.44
2022-08-19T23:44:51.676Z,94799.34
2022-08-19T23:45:57.371Z,94800.38
2022-08-19T23:47:00.412Z,94800.38
2022-08-19T23:48:08.645Z,94803.88
2022-08-19T23:49:11.449Z,94793.09
2022-08-19T23:50:13.461Z,94798.25
2022-08-19T23:51:17.629Z,94791.22
2022-08-19T23:52:19.703Z,94792.84
2022-08-19T23:53:22.519Z,94792.06
2022-08-19T23:54:34.315Z,94797.09
2022-08-19T23:55:48.383Z,94793.59
2022-08-19T23:56:50.188Z,94792.28
2022-08-19T23:57:53.241Z,94796.34
2022-08-19T23:58:55.175Z,94793.09
2022-08-19T23:59:58.486Z,94785.81
